createdAt,value
2017-10-29T00:01:35.379Z,93.70
2017-10-29T00:04:02.811Z,93.70
2017-10-29T00:06:30.244Z,93.70
2017-10-29T00:08:58.448Z,93.60
2017-10-29T00:11:25.895Z,93.70
2017-10-29T00:14:06.456Z,93.60
2017-10-29T00:16:34.655Z,93.60
2017-10-29T00:19:02.093Z,93.60
2017-10-29T00:21:29.915Z,93.70
2017-10-29T00:23:57.335Z,93.60
2017-10-29T00:26:25.183Z,93.70
2017-10-29T00:28:52.612Z,93.70
2017-10-29T00:31:20.060Z,93.70
2017-10-29T00:33:47.498Z,93.80
2017-10-29T00:36:16.414Z,93.90
2017-10-29T00:38:43.849Z,94.00
2017-10-29T00:41:11.290Z,94.30
2017-10-29T00:43:38.719Z,94.10
2017-10-29T00:46:07.050Z,94.30
2017-10-29T00:48:34.474Z,94.50
2017-10-29T00:51:04.407Z,94.80
2017-10-29T00:53:32.374Z,95.00
2017-10-29T00:55:59.811Z,95.40
2017-10-29T00:58:27.229Z,95.60
2017-10-29T01:00:55.854Z,95.70
2017-10-29T01:03:23.283Z,95.70
2017-10-29T01:05:51.124Z,95.80
2017-10-29T01:08:19.110Z,95.80
2017-10-29T01:10:46.529Z,95.80
2017-10-29T01:13:13.962Z,95.80
2017-10-29T01:15:41.400Z,95.80
2017-10-29T01:18:08.831Z,95.80
2017-10-29T01:20:37.046Z,95.70
2017-10-29T01:23:04.470Z,95.60
2017-10-29T01:25:32.824Z,95.70
2017-10-29T01:28:00.238Z,95.60
2017-10-29T01:30:27.673Z,95.60
2017-10-29T01:32:55.101Z,95.60
2017-10-29T01:35:22.541Z,95.50
2017-10-29T01:37:49.970Z,95.40
2017-10-29T01:40:17.418Z,95.40
2017-10-29T01:42:44.850Z,95.40
2017-10-29T01:45:12.289Z,95.40
2017-10-29T01:47:40.263Z,95.50
2017-10-29T01:50:08.686Z,95.50
2017-10-29T01:52:36.122Z,95.50
2017-10-29T01:55:03.546Z,95.50
2017-10-29T01:57:47.653Z,95.60
2017-10-29T02:00:15.083Z,95.50
2017-10-29T02:02:43.079Z,95.50
2017-10-29T02:05:10.510Z,95.70
2017-10-29T02:07:37.950Z,95.60
2017-10-29T02:10:06.147Z,95.50
2017-10-29T02:12:34.079Z,95.40
2017-10-29T02:15:01.506Z,95.30
2017-10-29T02:17:28.944Z,95.20
2017-10-29T02:19:56.679Z,95.20
2017-10-29T02:22:24.116Z,95.20
2017-10-29T02:24:51.538Z,95.10
2017-10-29T02:27:19.134Z,95.10
2017-10-29T02:29:47.749Z,94.80
2017-10-29T02:32:15.179Z,94.80
2017-10-29T02:34:43.378Z,94.80
2017-10-29T02:37:14.019Z,94.80
2017-10-29T02:39:41.455Z,94.70
2017-10-29T02:42:09.659Z,94.50
2017-10-29T02:44:37.087Z,94.50
2017-10-29T02:47:04.523Z,94.50
2017-10-29T02:49:32.727Z,94.90
2017-10-29T02:52:03.015Z,94.50
2017-10-29T02:54:30.450Z,94.50
2017-10-29T02:56:57.901Z,94.60
2017-10-29T02:59:25.328Z,94.60
2017-10-29T03:01:52.778Z,94.60
2017-10-29T03:04:20.203Z,94.60
2017-10-29T03:06:47.642Z,94.70
2017-10-29T03:09:15.074Z,94.70
2017-10-29T03:11:42.507Z,94.80
2017-10-29T03:14:09.935Z,94.80
2017-10-29T03:17:03.575Z,95.00
2017-10-29T03:19:31.020Z,95.00
2017-10-29T03:21:58.867Z,95.00
2017-10-29T03:24:26.289Z,95.10
2017-10-29T03:26:55.048Z,95.20
2017-10-29T03:29:22.474Z,95.20
2017-10-29T03:31:49.918Z,95.30
2017-10-29T03:34:17.351Z,95.40
2017-10-29T03:36:46.919Z,95.50
2017-10-29T03:39:15.334Z,95.50
2017-10-29T03:41:43.539Z,95.60
2017-10-29T03:44:10.983Z,95.50
2017-10-29T03:46:39.179Z,95.80
2017-10-29T03:49:06.616Z,95.80
2017-10-29T03:51:34.051Z,96.10
2017-10-29T03:54:01.488Z,96.40
2017-10-29T03:56:28.918Z,97.10
2017-10-29T03:58:57.770Z,97.70
2017-10-29T04:01:25.972Z,99.10
2017-10-29T04:03:53.960Z,99.10
2017-10-29T04:06:21.392Z,99.50
2017-10-29T04:08:48.826Z,99.90
2017-10-29T04:11:17.019Z,99.90
2017-10-29T04:13:44.709Z,99.90
2017-10-29T04:16:12.140Z,99.90
2017-10-29T04:18:39.574Z,99.90
2017-10-29T04:21:07.782Z,99.90
2017-10-29T04:23:35.210Z,99.90
2017-10-29T04:26:05.958Z,99.90
2017-10-29T04:28:33.398Z,99.90
2017-10-29T04:31:16.962Z,99.90
2017-10-29T04:33:44.399Z,99.90
2017-10-29T04:36:11.830Z,99.90
2017-10-29T04:38:39.799Z,99.90
2017-10-29T04:41:07.222Z,99.90
2017-10-29T04:43:34.678Z,99.90
2017-10-29T04:46:02.122Z,99.90
2017-10-29T04:48:29.543Z,99.90
2017-10-29T04:50:57.747Z,99.90
2017-10-29T04:53:25.944Z,99.90
2017-10-29T04:55:53.389Z,99.90
2017-10-29T04:58:21.230Z,99.90
2017-10-29T05:00:49.522Z,99.90
2017-10-29T05:03:16.950Z,99.90
2017-10-29T05:05:45.169Z,99.90
2017-10-29T05:08:13.090Z,99.90
2017-10-29T05:10:41.296Z,99.90
2017-10-29T05:13:08.723Z,99.90
2017-10-29T05:15:36.929Z,99.90
2017-10-29T05:18:04.359Z,99.90
2017-10-29T05:20:32.562Z,99.90
2017-10-29T05:26:07.203Z,99.90
2017-10-29T05:28:34.636Z,99.90
2017-10-29T05:31:02.830Z,99.90
2017-10-29T05:33:30.813Z,99.90
2017-10-29T05:35:58.250Z,99.90
2017-10-29T05:38:25.679Z,99.90
2017-10-29T05:40:53.559Z,99.90
2017-10-29T05:43:21.763Z,99.90
2017-10-29T05:45:49.203Z,99.90
2017-10-29T05:48:23.978Z,99.90
2017-10-29T05:50:51.521Z,99.90
2017-10-29T05:53:19.155Z,99.90
2017-10-29T05:55:47.183Z,99.90
2017-10-29T05:58:14.615Z,99.90
2017-10-29T06:00:42.063Z,99.90
2017-10-29T06:03:09.909Z,99.90
2017-10-29T06:05:37.334Z,99.90
2017-10-29T06:08:05.543Z,99.90
2017-10-29T06:10:32.972Z,99.90
2017-10-29T06:13:01.187Z,99.90
2017-10-29T06:15:28.619Z,99.90
2017-10-29T06:17:56.054Z,99.90
2017-10-29T06:20:23.474Z,99.90
2017-10-29T06:22:50.930Z,99.90
2017-10-29T06:25:20.924Z,99.90
2017-10-29T06:27:48.359Z,99.90
2017-10-29T06:30:16.559Z,99.90
2017-10-29T06:32:43.994Z,99.90
2017-10-29T06:35:11.980Z,99.90
2017-10-29T06:37:39.416Z,99.90
2017-10-29T06:40:07.617Z,99.90
2017-10-29T06:42:35.054Z,99.90
2017-10-29T06:45:02.489Z,99.90
2017-10-29T06:47:30.343Z,99.90
2017-10-29T06:49:57.774Z,99.90
2017-10-29T06:52:25.642Z,99.80
2017-10-29T06:54:53.327Z,99.90
2017-10-29T06:57:20.746Z,99.90
2017-10-29T06:59:48.179Z,99.90
2017-10-29T07:02:16.762Z,99.90
2017-10-29T07:04:44.193Z,99.60
2017-10-29T07:07:11.626Z,99.90
2017-10-29T07:09:39.062Z,99.70
2017-10-29T07:12:07.514Z,99.40
2017-10-29T07:14:35.695Z,99.10
2017-10-29T07:17:03.127Z,99.10
2017-10-29T07:19:31.336Z,97.90
2017-10-29T07:22:03.060Z,97.90
2017-10-29T07:24:31.269Z,93.90
2017-10-29T07:26:58.713Z,93.90
2017-10-29T07:29:26.144Z,93.90
2017-10-29T07:31:54.348Z,93.50
2017-10-29T07:34:36.878Z,93.50
2017-10-29T07:37:04.310Z,92.90
2017-10-29T07:39:31.733Z,92.20
2017-10-29T07:41:59.489Z,92.20
2017-10-29T07:44:31.262Z,93.20
2017-10-29T07:46:58.703Z,91.80
2017-10-29T07:49:30.147Z,91.70
2017-10-29T07:51:57.573Z,91.50
2017-10-29T07:54:25.003Z,91.90
2017-10-29T07:56:52.464Z,91.50
2017-10-29T07:59:20.834Z,91.50
2017-10-29T08:01:49.032Z,90.90
2017-10-29T08:04:16.458Z,90.80
2017-10-29T08:06:44.670Z,90.60
2017-10-29T08:09:13.523Z,90.60
2017-10-29T08:11:50.686Z,90.40
2017-10-29T08:14:22.047Z,87.20
2017-10-29T08:16:49.482Z,88.60
2017-10-29T08:19:16.912Z,89.00
2017-10-29T08:21:44.352Z,85.90
2017-10-29T08:24:12.214Z,84.80
2017-10-29T08:26:39.648Z,85.00
2017-10-29T08:29:10.306Z,83.50
2017-10-29T08:31:38.039Z,82.70
2017-10-29T08:34:07.185Z,81.70
2017-10-29T08:36:34.603Z,81.40
2017-10-29T08:39:02.819Z,80.50
2017-10-29T08:41:30.243Z,80.60
2017-10-29T08:43:58.450Z,80.70
2017-10-29T08:46:25.883Z,79.80
2017-10-29T08:48:53.319Z,77.70
2017-10-29T08:51:21.533Z,76.60
2017-10-29T08:53:48.967Z,76.60
2017-10-29T08:56:18.251Z,77.00
2017-10-29T08:58:51.491Z,75.10
2017-10-29T09:01:18.926Z,75.10
2017-10-29T09:03:46.367Z,73.50
2017-10-29T09:06:17.151Z,72.20
2017-10-29T09:08:44.589Z,72.20
2017-10-29T09:11:12.018Z,67.60
2017-10-29T09:13:40.230Z,65.70
2017-10-29T09:16:07.671Z,65.60
2017-10-29T09:18:36.023Z,64.60
2017-10-29T09:21:04.210Z,60.70
2017-10-29T09:23:31.653Z,60.70
2017-10-29T09:25:59.859Z,58.50
2017-10-29T09:28:27.728Z,58.50
2017-10-29T09:30:55.706Z,55.70
2017-10-29T09:33:23.815Z,54.10
2017-10-29T09:35:51.246Z,54.10
2017-10-29T09:38:18.694Z,54.20
2017-10-29T09:40:46.127Z,51.80
2017-10-29T09:43:14.973Z,52.50
2017-10-29T09:45:42.410Z,53.10
2017-10-29T09:48:09.852Z,54.20
2017-10-29T09:50:37.732Z,53.60
2017-10-29T09:53:05.166Z,54.20
2017-10-29T09:55:32.598Z,55.20
2017-10-29T09:58:00.810Z,57.80
2017-10-29T10:00:28.267Z,57.80
2017-10-29T10:02:55.703Z,57.70
2017-10-29T10:05:23.132Z,58.10
2017-10-29T10:07:51.343Z,56.60
2017-10-29T10:10:18.781Z,56.60
2017-10-29T10:12:46.222Z,57.00
2017-10-29T10:15:14.423Z,57.40
2017-10-29T10:17:42.417Z,57.30
2017-10-29T10:20:09.850Z,58.50
2017-10-29T10:22:38.143Z,56.00
2017-10-29T10:25:13.028Z,55.80
2017-10-29T10:27:41.345Z,54.40
2017-10-29T10:30:08.764Z,54.60
2017-10-29T10:32:36.973Z,54.50
2017-10-29T10:35:04.397Z,54.50
2017-10-29T10:37:32.608Z,54.30
2017-10-29T10:40:00.037Z,54.30
2017-10-29T10:42:28.242Z,52.80
2017-10-29T10:44:55.674Z,52.90
2017-10-29T10:47:23.119Z,52.80
2017-10-29T10:49:52.599Z,49.30
2017-10-29T10:52:20.021Z,49.20
2017-10-29T10:54:47.463Z,47.10
2017-10-29T10:57:23.275Z,46.90
2017-10-29T10:59:50.715Z,48.60
2017-10-29T11:02:18.150Z,49.60
2017-10-29T11:04:45.600Z,50.80
2017-10-29T11:07:13.442Z,52.00
2017-10-29T11:09:40.892Z,52.30
2017-10-29T11:12:11.128Z,52.90
2017-10-29T11:14:38.907Z,52.20
2017-10-29T11:17:06.423Z,53.70
2017-10-29T11:19:34.634Z,55.60
2017-10-29T11:22:02.465Z,55.30
2017-10-29T11:24:30.687Z,58.90
2017-10-29T11:26:58.114Z,58.60
2017-10-29T11:29:26.037Z,60.40
2017-10-29T11:31:57.897Z,59.80
2017-10-29T11:34:25.362Z,58.20
2017-10-29T11:36:52.888Z,57.40
2017-10-29T11:39:20.326Z,57.20
2017-10-29T11:41:48.531Z,55.00
2017-10-29T11:44:15.987Z,53.70
2017-10-29T11:46:43.428Z,52.30
2017-10-29T11:49:11.531Z,53.30
2017-10-29T11:51:39.221Z,55.80
2017-10-29T11:54:06.643Z,54.80
2017-10-29T11:56:34.082Z,52.30
2017-10-29T11:59:02.089Z,51.80
2017-10-29T12:01:29.526Z,49.90
2017-10-29T12:03:56.980Z,47.40
2017-10-29T12:06:24.406Z,43.80
2017-10-29T12:08:52.096Z,44.40
2017-10-29T12:11:23.291Z,45.70
2017-10-29T12:13:51.502Z,48.60
2017-10-29T12:16:18.935Z,48.60
2017-10-29T12:18:46.378Z,49.20
2017-10-29T12:21:14.575Z,48.50
2017-10-29T12:23:42.003Z,48.50
2017-10-29T12:26:09.443Z,50.30
2017-10-29T12:28:36.879Z,51.20
2017-10-29T12:31:04.384Z,51.60
2017-10-29T12:33:31.847Z,52.60
2017-10-29T12:36:00.066Z,50.50
2017-10-29T12:38:27.515Z,50.60
2017-10-29T12:40:55.160Z,49.00
2017-10-29T12:43:22.596Z,49.80
2017-10-29T12:45:50.931Z,49.70
2017-10-29T12:48:18.895Z,49.60
2017-10-29T12:50:47.111Z,44.90
2017-10-29T12:53:15.378Z,47.00
2017-10-29T12:55:42.815Z,46.40
2017-10-29T12:58:11.163Z,49.10
2017-10-29T13:00:38.655Z,49.20
2017-10-29T13:03:06.905Z,50.90
2017-10-29T13:05:34.338Z,51.60
2017-10-29T13:08:01.768Z,53.30
2017-10-29T13:10:30.399Z,55.00
2017-10-29T13:12:57.841Z,54.90
2017-10-29T13:15:25.294Z,56.10
2017-10-29T13:18:02.827Z,56.70
2017-10-29T13:20:31.458Z,58.60
2017-10-29T13:22:59.660Z,59.60
2017-10-29T13:25:27.090Z,59.60
2017-10-29T13:27:55.374Z,60.10
2017-10-29T13:30:23.506Z,60.10
2017-10-29T13:32:51.700Z,60.10
2017-10-29T13:35:25.221Z,60.10
2017-10-29T13:37:53.221Z,60.70
2017-10-29T13:40:20.671Z,62.10
2017-10-29T13:42:48.106Z,63.10
2017-10-29T13:45:15.539Z,63.70
2017-10-29T13:47:42.983Z,64.20
2017-10-29T13:50:10.410Z,64.80
2017-10-29T13:52:38.240Z,65.50
2017-10-29T13:55:05.731Z,66.30
2017-10-29T13:57:33.163Z,67.40
2017-10-29T14:00:00.597Z,67.20
2017-10-29T14:02:28.807Z,65.70
2017-10-29T14:04:56.249Z,65.70
2017-10-29T14:07:24.485Z,65.40
2017-10-29T14:09:52.511Z,65.40
2017-10-29T14:12:20.487Z,65.30
2017-10-29T14:14:47.925Z,65.70
2017-10-29T14:17:15.352Z,64.70
2017-10-29T14:19:43.550Z,65.80
2017-10-29T14:22:18.763Z,65.10
2017-10-29T14:24:46.190Z,64.40
2017-10-29T14:27:14.032Z,63.60
2017-10-29T14:29:41.466Z,62.10
2017-10-29T14:32:08.903Z,61.40
2017-10-29T14:34:37.119Z,60.60
2017-10-29T14:37:04.568Z,60.60
2017-10-29T14:39:32.651Z,60.00
2017-10-29T14:42:00.063Z,59.00
2017-10-29T14:44:34.846Z,59.40
2017-10-29T14:47:02.281Z,58.70
2017-10-29T14:49:29.719Z,58.00
2017-10-29T14:51:58.353Z,58.50
2017-10-29T14:54:26.374Z,58.40
2017-10-29T14:57:01.254Z,59.20
2017-10-29T14:59:28.697Z,59.10
2017-10-29T15:01:56.131Z,59.90
2017-10-29T15:04:23.794Z,60.40
2017-10-29T15:06:51.242Z,61.70
2017-10-29T15:09:19.851Z,62.60
2017-10-29T15:11:47.283Z,62.50
2017-10-29T15:14:16.474Z,63.70
2017-10-29T15:16:44.682Z,63.60
2017-10-29T15:19:12.135Z,63.60
2017-10-29T15:21:40.079Z,64.20
2017-10-29T15:24:08.304Z,65.00
2017-10-29T15:26:35.726Z,65.00
2017-10-29T15:29:03.165Z,65.80
2017-10-29T15:31:31.370Z,66.00
2017-10-29T15:33:58.798Z,65.90
2017-10-29T15:36:28.431Z,69.10
2017-10-29T15:38:55.853Z,69.10
2017-10-29T15:41:24.756Z,70.90
2017-10-29T15:43:52.956Z,72.10
2017-10-29T15:46:20.392Z,71.40
2017-10-29T15:48:49.115Z,74.00
2017-10-29T15:51:16.807Z,74.00
2017-10-29T15:53:44.220Z,74.70
2017-10-29T15:56:12.378Z,75.00
2017-10-29T15:58:41.130Z,75.80
2017-10-29T16:01:08.706Z,75.80
2017-10-29T16:03:36.903Z,77.40
2017-10-29T16:06:06.280Z,77.40
2017-10-29T16:08:34.470Z,78.80
2017-10-29T16:11:02.957Z,79.20
2017-10-29T16:13:31.139Z,80.00
2017-10-29T16:15:59.004Z,79.90
2017-10-29T16:18:26.431Z,80.10
2017-10-29T16:20:54.179Z,80.40
2017-10-29T16:23:21.598Z,80.90
2017-10-29T16:25:49.556Z,81.40
2017-10-29T16:28:17.265Z,82.10
2017-10-29T16:30:44.687Z,82.70
2017-10-29T16:33:24.050Z,83.40
2017-10-29T16:35:51.479Z,83.70
2017-10-29T16:38:19.299Z,84.40
2017-10-29T16:40:47.131Z,85.10
2017-10-29T16:43:14.563Z,85.90
2017-10-29T16:45:41.992Z,86.50
2017-10-29T16:48:13.534Z,86.20
2017-10-29T16:50:40.958Z,86.20
2017-10-29T16:53:08.399Z,85.50
2017-10-29T16:55:35.847Z,85.10
2017-10-29T16:58:04.074Z,84.90
2017-10-29T17:00:31.507Z,84.80
2017-10-29T17:02:58.946Z,84.70
2017-10-29T17:05:26.385Z,85.00
2017-10-29T17:07:53.810Z,85.30
2017-10-29T17:10:22.006Z,85.40
2017-10-29T17:12:50.071Z,85.30
2017-10-29T17:15:17.514Z,84.90
2017-10-29T17:17:47.074Z,84.50
2017-10-29T17:20:15.271Z,84.00
2017-10-29T17:22:42.703Z,84.00
2017-10-29T17:25:10.131Z,84.30
2017-10-29T17:27:37.567Z,85.10
2017-10-29T17:30:05.778Z,85.50
2017-10-29T17:32:33.233Z,85.30
2017-10-29T17:35:00.678Z,85.70
2017-10-29T17:37:28.106Z,85.90
2017-10-29T17:39:56.306Z,88.00
2017-10-29T17:42:23.735Z,88.00
2017-10-29T17:44:51.939Z,90.00
2017-10-29T17:47:19.366Z,89.70
2017-10-29T17:49:47.571Z,90.30
2017-10-29T17:52:14.998Z,90.20
2017-10-29T17:54:43.203Z,91.00
2017-10-29T17:57:10.626Z,91.20
2017-10-29T17:59:38.063Z,91.50
2017-10-29T18:02:05.508Z,92.00
2017-10-29T18:04:32.944Z,92.20
2017-10-29T18:07:00.366Z,92.20
2017-10-29T18:09:45.996Z,92.10
2017-10-29T18:12:13.407Z,92.10
2017-10-29T18:14:41.608Z,92.10
2017-10-29T18:17:09.036Z,92.00
2017-10-29T18:19:37.236Z,92.90
2017-10-29T18:22:04.658Z,92.90
2017-10-29T18:24:32.098Z,93.40
2017-10-29T18:26:59.527Z,93.90
2017-10-29T18:29:26.954Z,93.30
2017-10-29T18:31:54.834Z,93.00
2017-10-29T18:34:22.272Z,92.50
2017-10-29T18:36:50.466Z,92.10
2017-10-29T18:39:17.890Z,92.00
2017-10-29T18:41:46.498Z,92.20
2017-10-29T18:44:13.932Z,92.20
2017-10-29T18:49:35.658Z,92.90
2017-10-29T18:52:08.235Z,93.70
2017-10-29T18:54:40.827Z,93.80
2017-10-29T18:57:09.870Z,94.30
2017-10-29T18:59:56.521Z,94.30
2017-10-29T19:02:23.938Z,94.40
2017-10-29T19:04:51.389Z,94.30
2017-10-29T19:07:18.819Z,94.30
2017-10-29T19:09:46.258Z,94.30
2017-10-29T19:12:13.676Z,94.40
2017-10-29T19:14:41.114Z,94.50
2017-10-29T19:17:08.549Z,94.10
2017-10-29T19:19:36.534Z,93.50
2017-10-29T19:22:03.974Z,93.00
2017-10-29T19:24:32.165Z,91.70
2017-10-29T19:27:00.267Z,91.70
2017-10-29T19:29:27.682Z,91.40
2017-10-29T19:31:55.112Z,90.60
2017-10-29T19:34:23.325Z,90.90
2017-10-29T19:36:50.752Z,90.50
2017-10-29T19:39:19.504Z,90.10
2017-10-29T19:41:47.752Z,90.10
2017-10-29T19:44:15.188Z,90.00
2017-10-29T19:46:42.623Z,90.10
2017-10-29T19:49:11.244Z,90.50
2017-10-29T19:51:42.657Z,90.50
2017-10-29T19:54:10.851Z,90.80
2017-10-29T19:56:39.443Z,90.80
2017-10-29T19:59:07.319Z,91.10
2017-10-29T20:01:34.754Z,91.40
2017-10-29T20:04:02.179Z,91.60
2017-10-29T20:06:29.611Z,91.70
2017-10-29T20:08:57.661Z,91.90
2017-10-29T20:11:25.332Z,91.90
2017-10-29T20:13:52.764Z,92.30
2017-10-29T20:16:20.742Z,92.70
2017-10-29T20:18:48.174Z,93.70
2017-10-29T20:21:16.367Z,94.10
2017-10-29T20:23:43.791Z,94.10
2017-10-29T20:26:11.230Z,93.90
2017-10-29T20:28:39.030Z,93.90
2017-10-29T20:31:10.582Z,94.30
2017-10-29T20:33:38.783Z,94.50
2017-10-29T20:36:06.215Z,94.50
2017-10-29T20:38:34.415Z,94.00
2017-10-29T20:41:01.856Z,93.90
2017-10-29T20:43:29.279Z,93.70
2017-10-29T20:45:57.678Z,93.90
2017-10-29T20:48:31.751Z,93.90
2017-10-29T20:51:12.824Z,93.90
2017-10-29T20:53:40.239Z,93.80
2017-10-29T20:56:07.671Z,94.00
2017-10-29T20:58:35.102Z,94.10
2017-10-29T21:01:02.542Z,94.00
2017-10-29T21:03:29.973Z,93.60
2017-10-29T21:06:00.016Z,93.70
2017-10-29T21:08:27.444Z,93.90
2017-10-29T21:10:54.887Z,94.00
2017-10-29T21:13:23.087Z,94.30
2017-10-29T21:15:51.343Z,94.30
2017-10-29T21:18:20.831Z,94.50
2017-10-29T21:20:49.686Z,94.90
2017-10-29T21:23:19.439Z,94.60
2017-10-29T21:25:47.640Z,94.90
2017-10-29T21:28:15.062Z,94.90
2017-10-29T21:30:42.775Z,95.50
2017-10-29T21:33:12.458Z,95.10
2017-10-29T21:35:40.316Z,95.20
2017-10-29T21:38:08.513Z,96.10
2017-10-29T21:40:35.971Z,96.10
2017-10-29T21:43:03.407Z,96.30
2017-10-29T21:45:31.619Z,96.40
2017-10-29T21:47:59.470Z,96.40
2017-10-29T21:50:26.911Z,96.40
2017-10-29T21:52:54.341Z,97.30
2017-10-29T21:55:21.779Z,97.10
2017-10-29T21:57:49.203Z,96.60
2017-10-29T22:00:17.555Z,96.40
2017-10-29T22:02:44.990Z,96.30
2017-10-29T22:05:12.431Z,96.60
2017-10-29T22:07:40.008Z,96.80
2017-10-29T22:10:07.439Z,97.20
2017-10-29T22:12:34.867Z,97.40
2017-10-29T22:15:02.309Z,97.70
2017-10-29T22:17:30.194Z,97.80
2017-10-29T22:19:57.634Z,97.90
2017-10-29T22:22:25.467Z,98.10
2017-10-29T22:24:52.913Z,97.60
2017-10-29T22:27:20.339Z,97.80
2017-10-29T22:29:50.334Z,97.30
2017-10-29T22:32:17.772Z,97.40
2017-10-29T22:34:45.963Z,97.50
2017-10-29T22:37:13.398Z,97.50
2017-10-29T22:39:41.604Z,97.00
2017-10-29T22:42:09.040Z,96.90
2017-10-29T22:44:37.232Z,97.00
2017-10-29T22:47:04.670Z,97.00
2017-10-29T22:49:32.865Z,97.50
2017-10-29T22:52:00.296Z,97.50
2017-10-29T22:54:28.493Z,97.60
2017-10-29T22:56:55.927Z,97.60
2017-10-29T22:59:24.120Z,97.30
2017-10-29T23:01:51.555Z,97.30
2017-10-29T23:04:19.751Z,97.90
2017-10-29T23:06:47.193Z,97.90
2017-10-29T23:09:22.158Z,98.40
2017-10-29T23:11:49.594Z,98.40
2017-10-29T23:14:23.341Z,99.10
2017-10-29T23:16:50.772Z,98.90
2017-10-29T23:19:18.775Z,98.70
2017-10-29T23:21:46.227Z,98.40
2017-10-29T23:24:13.642Z,97.80
2017-10-29T23:26:41.527Z,97.10
2017-10-29T23:29:09.007Z,97.00
2017-10-29T23:31:36.426Z,96.80
2017-10-29T23:34:04.238Z,96.30
2017-10-29T23:36:32.438Z,94.60
2017-10-29T23:39:00.630Z,93.90
2017-10-29T23:41:28.109Z,93.90
2017-10-29T23:43:55.526Z,93.50
2017-10-29T23:46:23.727Z,93.20
2017-10-29T23:48:51.683Z,93.00
2017-10-29T23:51:20.345Z,93.00
2017-10-29T23:53:49.185Z,93.00
2017-10-29T23:56:16.622Z,93.20
2017-10-29T23:58:44.052Z,93.40
